Flight Track Log - Related Links

Times and Time Zones

All times are in EDT time to prevent confusion due to time zone crossing. See the DCM4880 flight status page for this flight to view local times or setup timezone preferences in your user account.

Time Position Orientation Groundspeed Altitude Reporting Facility
EDT Latitude Longitude Course Direction KTS MPH feet Rate Location/Type
Tue 05:00:20 PM 42.3667 -82.9664 143° Southeast 211 243 3,900  Level Cleveland Center
Tue 05:01:15 PM 42.3117 -82.9053 141° Southeast 294 338 4,100 1,180 Climbing Cleveland Center
Tue 05:02:22 PM 42.2311 -82.8631 159° South 274 315 6,300 2,213 Climbing Cleveland Center
Tue 05:03:17 PM 42.1706 -82.8722 186° South 271 312 8,600 2,477 Climbing Cleveland Center
Tue 05:04:11 PM 42.1772 -82.9508 277° West 265 305 10,800 2,211 Climbing Cleveland Center
Tue 05:05:11 PM 42.2019 -83.0639 286° West 318 366 12,800 1,150 Climbing Cleveland Center
Tue 05:06:11 PM 42.2225 -83.1739 284° West 333 383 13,100 1,100 Climbing Cleveland Center
Tue 05:07:11 PM 42.2489 -83.3014 286° West 328 377 15,000 2,233 Climbing Cleveland Center
Tue 05:09:11 PM 42.2967 -83.5533 284° West 340 391 19,800 1,700 Climbing Cleveland Center
Tue 05:10:11 PM 42.3225 -83.6864 285° West 356 410 20,100 100 Climbing Cleveland Center
Tue 05:11:11 PM 42.3478 -83.8225 284° West 367 422 20,000 -50 Descending Cleveland Center
Tue 05:12:11 PM 42.3711 -83.9531 284° West 367 422 20,000  Level Cleveland Center
Tue 05:13:11 PM 42.4156 -84.0764 296° West 358 412 20,000  Level Cleveland Center
Tue 05:14:11 PM 42.4939 -84.1681 319° Northwest 363 418 20,000  Level Cleveland Center
Tue 05:15:11 PM 42.5700 -84.2656 317° Northwest 363 418 20,000  Level Cleveland Center
Tue 05:16:11 PM 42.6014 -84.3944 288° West 352 405 20,000  Level Cleveland Center
Tue 05:17:11 PM 42.6156 -84.5308 278° West 357 411 20,000  Level Cleveland Center
Tue 05:18:11 PM 42.6275 -84.6669 277° West 363 418 20,000  Level Cleveland Center
Tue 05:19:30 PM 42.6228 -84.8350 268° West 378 435 20,000  Level Chicago Center
Tue 05:20:33 PM 42.5672 -84.9519 237° Southwest 381 438 20,000  Level Chicago Center
Tue 05:21:35 PM 42.5844 -85.0894 280° West 376 433 20,000  Level Chicago Center
Tue 05:22:37 PM 42.6128 -85.2242 286° West 371 427 20,000  Level Chicago Center
Tue 05:23:39 PM 42.6458 -85.3872 285° West 374 430 20,000 -1,500 Level Chicago Center
Tue 05:24:41 PM 42.6708 -85.5167 285° West 362 417 16,900 -3,629 Descending Chicago Center
Tue 05:25:43 PM 42.6956 -85.6375 286° West 342 394 12,500 -3,290 Descending Chicago Center
Tue 05:26:45 PM 42.7164 -85.7456 285° West 310 357 10,100 -3,097 Descending Chicago Center
Tue 05:27:47 PM 42.7378 -85.8472 286° West 282 325 6,100 -3,435 Descending Chicago Center
Tue 05:28:49 PM 42.7583 -85.9503 285° West 281 323 3,000 -2,160 Descending Chicago Center
Tue 05:29:52 PM 42.7531 -86.0322 265° West 236 272 1,600 -1,333 Descending Chicago Center

Login

Don't have an account? Register now (free) for customized features, flight alerts, and more!